createdAt,value
2023-01-23T00:01:54.904Z,6.3
2023-01-23T00:03:58.629Z,7.5
2023-01-23T00:06:05.201Z,7.9
2023-01-23T00:08:08.923Z,7.9
2023-01-23T00:10:12.600Z,6
2023-01-23T00:15:23.282Z,8.6
2023-01-23T00:17:27.075Z,7.3
2023-01-23T00:19:33.635Z,7.8
2023-01-23T00:21:37.297Z,8.1
2023-01-23T00:25:44.767Z,8.1
2023-01-23T00:29:52.190Z,7
2023-01-23T00:31:55.919Z,9.4
2023-01-23T00:34:02.545Z,8.7
2023-01-23T00:36:06.315Z,8.3
2023-01-23T00:38:10.121Z,8.4
2023-01-23T00:40:13.842Z,8.5
2023-01-23T00:44:21.386Z,7.8
2023-01-23T00:48:31.556Z,7.9
2023-01-23T00:50:35.238Z,7
2023-01-23T00:52:38.904Z,6.5
2023-01-23T00:54:42.593Z,6.7
2023-01-23T00:56:46.237Z,6.8
2023-01-23T00:58:49.911Z,7.7
2023-01-23T01:00:53.586Z,8.3
2023-01-23T01:03:00.371Z,8
2023-01-23T01:05:04.077Z,9.3
2023-01-23T01:07:07.731Z,8.4
2023-01-23T01:08:11.077Z,10.4
2023-01-23T01:10:14.831Z,6.4
2023-01-23T01:14:22.313Z,6.9
2023-01-23T01:16:29.011Z,9.2
2023-01-23T01:18:32.576Z,6.5
2023-01-23T01:20:36.208Z,7.9
2023-01-23T01:22:40.016Z,6.9
2023-01-23T01:24:43.761Z,7.3
2023-01-23T01:28:51.237Z,7.2
2023-01-23T01:30:57.799Z,10.5
2023-01-23T01:35:05.207Z,8.4
2023-01-23T01:37:08.838Z,8.7
2023-01-23T01:39:12.504Z,7.8
2023-01-23T01:41:16.198Z,8
2023-01-23T01:43:19.955Z,6.2
2023-01-23T01:45:26.522Z,8.2
2023-01-23T01:47:30.372Z,8.5
2023-01-23T01:49:34.127Z,8.3
2023-01-23T01:51:37.821Z,6.3
2023-01-23T01:55:45.249Z,9.3
2023-01-23T01:59:55.423Z,8.3
2023-01-23T02:01:59.106Z,7.8
2023-01-23T02:04:02.890Z,7.5
2023-01-23T02:05:06.231Z,7.9
2023-01-23T02:07:09.879Z,8.8
2023-01-23T02:09:13.637Z,8.7
2023-01-23T02:11:17.318Z,8.6
2023-01-23T02:13:23.802Z,7.9
2023-01-23T02:15:27.481Z,7.3
2023-01-23T02:17:31.153Z,8.9
2023-01-23T02:19:34.790Z,7.3
2023-01-23T02:21:38.498Z,8.3
2023-01-23T02:23:42.246Z,6.9
2023-01-23T02:25:46.050Z,7.6
2023-01-23T02:27:52.508Z,9.6
2023-01-23T02:29:56.175Z,6.3
2023-01-23T02:31:59.891Z,9.6
2023-01-23T02:34:03.586Z,7.1
2023-01-23T02:36:07.321Z,8.8
2023-01-23T02:40:14.746Z,8.5
2023-01-23T02:42:21.355Z,10.2
2023-01-23T02:44:25.129Z,7.8
2023-01-23T02:46:28.778Z,6.3
2023-01-23T02:48:32.451Z,7.9
2023-01-23T02:50:36.130Z,10.1
2023-01-23T02:52:39.796Z,8.9
2023-01-23T02:54:43.497Z,8.1
2023-01-23T02:56:50.115Z,9.6
2023-01-23T02:58:53.848Z,9.7
2023-01-23T03:00:57.641Z,9.7
2023-01-23T03:03:21.522Z,10.3
2023-01-23T03:05:25.294Z,8.6
2023-01-23T03:07:29.062Z,9.2
2023-01-23T03:09:35.680Z,9.8
2023-01-23T03:11:39.451Z,9.3
2023-01-23T03:13:43.098Z,9
2023-01-23T03:15:46.762Z,8.1
2023-01-23T03:19:54.191Z,7.2
2023-01-23T03:24:04.545Z,9
2023-01-23T03:34:23.082Z,8.9
2023-01-23T03:38:33.427Z,8.5
2023-01-23T03:46:48.118Z,9.1
2023-01-23T03:48:51.900Z,9.7
2023-01-23T03:50:55.617Z,9.4
2023-01-23T03:53:02.248Z,10.9
2023-01-23T03:55:06.006Z,11.6
2023-01-23T03:58:13.073Z,10
2023-01-23T04:00:17.059Z,9.2
2023-01-23T04:02:20.613Z,8.7
2023-01-23T04:04:24.354Z,9.2
2023-01-23T04:06:30.931Z,9.6
2023-01-23T04:08:34.612Z,9.9
2023-01-23T04:10:38.379Z,10.1
2023-01-23T04:12:42.171Z,9
2023-01-23T04:14:45.805Z,8.5
2023-01-23T04:16:49.665Z,9.5
2023-01-23T04:18:53.301Z,8.2
2023-01-23T04:20:59.847Z,9.4
2023-01-23T04:23:03.610Z,7.6
2023-01-23T04:25:07.282Z,7.4
2023-01-23T04:27:10.956Z,7.6
2023-01-23T04:29:14.596Z,8.6
2023-01-23T04:33:22.065Z,8.6
2023-01-23T04:35:28.645Z,9.7
2023-01-23T04:37:32.434Z,10
2023-01-23T04:39:36.201Z,9.1
2023-01-23T04:41:39.937Z,8.7
2023-01-23T04:43:43.598Z,7.1
2023-01-23T04:45:47.267Z,7.7
2023-01-23T04:47:50.945Z,8.2
2023-01-23T04:49:57.627Z,11
2023-01-23T04:52:01.407Z,9.2
2023-01-23T04:54:05.163Z,9.4
2023-01-23T04:55:08.499Z,10.7
2023-01-23T04:57:12.174Z,8.1
2023-01-23T04:59:15.854Z,9.5
2023-01-23T05:01:19.642Z,8.5
2023-01-23T05:03:27.562Z,9.8
2023-01-23T05:05:31.228Z,6.6
2023-01-23T05:07:34.901Z,8
2023-01-23T05:09:38.587Z,8.6
2023-01-23T05:11:42.220Z,10
2023-01-23T05:13:46.045Z,7.3
2023-01-23T05:20:00.157Z,9
2023-01-23T05:22:03.888Z,8.9
2023-01-23T05:24:07.568Z,6.9
2023-01-23T05:26:11.344Z,8.4
2023-01-23T05:28:14.996Z,9.2
2023-01-23T05:30:19.127Z,8.7
2023-01-23T05:32:25.462Z,10.7
2023-01-23T05:34:29.126Z,10.3
2023-01-23T05:36:32.903Z,9.4
2023-01-23T05:38:36.668Z,10.1
2023-01-23T05:44:47.782Z,8.7
2023-01-23T05:46:54.255Z,10.7
2023-01-23T05:51:01.713Z,10.3
2023-01-23T05:52:05.056Z,9.2
2023-01-23T05:54:08.713Z,8
2023-01-23T05:56:12.399Z,8.8
2023-01-23T05:58:16.321Z,9.6
2023-01-23T06:00:22.920Z,10.1
2023-01-23T06:02:26.415Z,8.5
2023-01-23T06:04:30.004Z,7.9
2023-01-23T06:06:33.685Z,7.9
2023-01-23T06:08:37.439Z,8.4
2023-01-23T06:14:51.725Z,8.4
2023-01-23T06:21:03.044Z,8
2023-01-23T06:23:06.744Z,8.7
2023-01-23T06:25:10.491Z,9.5
2023-01-23T06:27:14.307Z,8.6
2023-01-23T06:31:24.709Z,9
2023-01-23T06:33:28.349Z,7.9
2023-01-23T06:35:32.128Z,8.5
2023-01-23T06:37:35.804Z,9.7
2023-01-23T06:39:39.557Z,9.6
2023-01-23T06:41:43.328Z,10.7
2023-01-23T06:43:49.852Z,10.1
2023-01-23T06:45:53.603Z,8.3
2023-01-23T06:47:57.296Z,10.1
2023-01-23T06:50:21.297Z,11
2023-01-23T06:52:24.769Z,8.9
2023-01-23T06:54:28.540Z,5.8
2023-01-23T06:56:35.012Z,9.9
2023-01-23T06:58:38.706Z,8
2023-01-23T07:00:42.361Z,10.4
2023-01-23T07:02:46.153Z,11.9
2023-01-23T07:04:49.918Z,11.9
2023-01-23T07:08:57.370Z,10
2023-01-23T07:11:03.947Z,11.2
2023-01-23T07:13:07.843Z,10.8
2023-01-23T07:15:11.670Z,10.2
2023-01-23T07:17:15.413Z,9.3
2023-01-23T07:21:22.949Z,10.6
2023-01-23T07:23:26.619Z,8.7
2023-01-23T07:25:33.120Z,11.6
2023-01-23T07:27:36.805Z,9.5
2023-01-23T07:29:40.435Z,12
2023-01-23T07:31:44.180Z,10.8
2023-01-23T07:33:47.833Z,10.5
2023-01-23T07:35:51.528Z,10.3
2023-01-23T07:37:55.215Z,10.4
2023-01-23T07:40:01.821Z,11.5
2023-01-23T07:42:05.577Z,11.4
2023-01-23T07:44:09.351Z,12.1
2023-01-23T07:45:12.693Z,13.4
2023-01-23T07:47:16.392Z,12.9
2023-01-23T07:51:23.848Z,10.8
2023-01-23T07:53:30.350Z,13.8
2023-01-23T07:55:34.118Z,11.3
2023-01-23T07:57:37.871Z,11.5
2023-01-23T07:59:41.574Z,12.5
2023-01-23T08:01:45.341Z,9
2023-01-23T08:05:52.695Z,12.7
2023-01-23T08:10:02.983Z,11.4
2023-01-23T08:14:10.547Z,12.7
2023-01-23T08:16:14.263Z,10.3
2023-01-23T08:18:18.037Z,11.1
2023-01-23T08:20:22.160Z,14
2023-01-23T08:22:28.395Z,11.8
2023-01-23T08:24:32.065Z,10.5
2023-01-23T08:26:35.750Z,11.9
2023-01-23T08:28:39.517Z,8.1
2023-01-23T08:30:43.306Z,12.3
2023-01-23T08:32:47.085Z,13.8
2023-01-23T08:34:50.729Z,14.1
2023-01-23T08:36:57.226Z,11.9
2023-01-23T08:39:00.920Z,11.9
2023-01-23T08:41:04.579Z,11.4
2023-01-23T08:42:07.840Z,13.3
2023-01-23T08:44:11.618Z,11.8
2023-01-23T08:46:15.291Z,11.9
2023-01-23T08:48:19.078Z,11
2023-01-23T08:50:25.622Z,13.9
2023-01-23T08:52:29.267Z,13.4
2023-01-23T08:54:33.032Z,10.9
2023-01-23T08:58:40.532Z,14
2023-01-23T09:00:44.510Z,14.6
2023-01-23T09:02:48.120Z,11.8
2023-01-23T09:04:54.721Z,13.2
2023-01-23T09:06:58.412Z,12.4
2023-01-23T09:09:02.237Z,12.6
2023-01-23T09:11:05.902Z,11.6
2023-01-23T09:13:09.708Z,10.7
2023-01-23T09:15:13.324Z,12.5
2023-01-23T09:17:17.047Z,14.4
2023-01-23T09:19:23.553Z,13.8
2023-01-23T09:25:34.756Z,13.6
2023-01-23T09:31:46.314Z,13.1
2023-01-23T09:33:52.670Z,13.6
2023-01-23T09:39:04.277Z,13.4
2023-01-23T09:41:08.023Z,11.7
2023-01-23T09:43:11.808Z,14.5
2023-01-23T09:45:15.541Z,13.1
2023-01-23T09:47:22.076Z,13.1
2023-01-23T09:49:25.771Z,13.7
2023-01-23T09:51:29.509Z,11.8
2023-01-23T09:53:33.219Z,12.7
2023-01-23T09:57:40.619Z,13.8
2023-01-23T09:59:58.356Z,12.8
2023-01-23T10:03:54.599Z,12.1
2023-01-23T10:05:58.382Z,15.5
2023-01-23T10:08:02.157Z,12.2
2023-01-23T10:10:07.124Z,12.1
2023-01-23T10:12:09.673Z,12.4
2023-01-23T10:14:15.015Z,11.9
2023-01-23T10:16:20.099Z,13.7
2023-01-23T10:18:23.760Z,10
2023-01-23T10:20:27.487Z,12.4
2023-01-23T10:22:31.297Z,10.1
2023-01-23T10:24:40.175Z,11.2
2023-01-23T10:28:42.606Z,10.1
2023-01-23T10:32:53.004Z,10.1
2023-01-23T10:34:56.731Z,10.3
2023-01-23T10:37:20.343Z,12.8
2023-01-23T10:39:24.176Z,13.3
2023-01-23T10:41:27.914Z,9.9
2023-01-23T10:43:34.455Z,12.3
2023-01-23T10:45:38.226Z,12.2
2023-01-23T10:47:42.902Z,10.5
2023-01-23T10:49:45.814Z,10
2023-01-23T10:51:49.642Z,9.6
2023-01-23T10:53:53.370Z,9.2
2023-01-23T10:55:57.144Z,10.8
2023-01-23T10:58:05.310Z,12
2023-01-23T11:00:08.981Z,8.6
2023-01-23T11:02:12.912Z,10.3
2023-01-23T11:06:20.267Z,9.9
2023-01-23T11:16:41.995Z,10.8
2023-01-23T11:18:45.757Z,9.1
2023-01-23T11:22:53.253Z,10.2
2023-01-23T11:24:57.022Z,9
2023-01-23T11:27:03.679Z,8.8
2023-01-23T11:29:09.314Z,9.4
2023-01-23T11:31:15.137Z,9.9
2023-01-23T11:32:14.589Z,10.6
2023-01-23T11:34:18.318Z,10.4
2023-01-23T11:36:22.085Z,8.9
2023-01-23T11:38:30.805Z,8.6
2023-01-23T11:40:32.602Z,11.1
2023-01-23T11:42:36.383Z,9.6
2023-01-23T11:44:45.937Z,11.2
2023-01-23T11:46:43.925Z,9.7
2023-01-23T11:48:47.783Z,11.2
2023-01-23T11:50:55.573Z,11.3
2023-01-23T11:52:55.262Z,10.2
2023-01-23T11:55:01.845Z,11.2
2023-01-23T11:57:05.676Z,11.3
2023-01-23T11:59:09.426Z,6.3
2023-01-23T12:01:13.181Z,10.1
2023-01-23T12:05:20.989Z,10.9
2023-01-23T12:07:24.534Z,10.2
2023-01-23T12:11:34.880Z,12
2023-01-23T12:13:38.740Z,9.9
2023-01-23T12:15:42.557Z,9.4
2023-01-23T12:17:46.347Z,11.4
2023-01-23T12:19:50.174Z,10.3
2023-01-23T12:21:53.872Z,11.5
2023-01-23T12:24:00.467Z,9.3
2023-01-23T12:26:04.213Z,9.5
2023-01-23T12:28:08.065Z,9.3
2023-01-23T12:31:15.355Z,8.8
2023-01-23T12:33:18.991Z,10.3
2023-01-23T12:35:22.748Z,8.8
2023-01-23T12:39:33.071Z,8.7
2023-01-23T12:41:36.844Z,10
2023-01-23T12:43:40.596Z,10.7
2023-01-23T12:45:44.335Z,10.4
2023-01-23T12:47:48.133Z,10.2
2023-01-23T12:49:51.910Z,9.6
2023-01-23T12:51:58.509Z,10.6
2023-01-23T12:54:02.264Z,10.7
2023-01-23T12:58:09.954Z,9.7
2023-01-23T13:02:17.378Z,9.4
2023-01-23T13:06:27.740Z,9.2
2023-01-23T13:08:37.849Z,8.9
2023-01-23T13:16:46.746Z,8.6
2023-01-23T13:18:50.467Z,9.2
2023-01-23T13:25:04.584Z,12
2023-01-23T13:26:07.958Z,9.9
2023-01-23T13:30:15.497Z,8.6
2023-01-23T13:32:19.376Z,9.2
2023-01-23T13:34:25.853Z,9.1
2023-01-23T13:36:29.659Z,8
2023-01-23T13:40:37.119Z,8.6
2023-01-23T13:42:41.006Z,8.9
2023-01-23T13:44:44.777Z,8.5
2023-01-23T14:22:01.194Z,7.5
2023-01-23T14:26:34.591Z,8.7
2023-01-23T14:28:38.340Z,7.8
2023-01-23T14:30:44.941Z,7
2023-01-23T14:36:56.394Z,8.7
2023-01-23T14:41:03.878Z,9.7
2023-01-23T14:43:07.618Z,10
2023-01-23T14:45:14.292Z,10.8
2023-01-23T14:51:25.556Z,9.5
2023-01-23T14:53:29.404Z,12.1
2023-01-23T14:55:33.298Z,8.8
2023-01-23T14:57:37.086Z,11.6
2023-01-23T14:59:43.658Z,11
2023-01-23T15:01:47.380Z,10.4
2023-01-23T15:03:51.108Z,9.7
2023-01-23T15:05:54.867Z,10.8
2023-01-23T15:07:58.600Z,10
2023-01-23T15:10:02.344Z,13.2
2023-01-23T15:12:06.173Z,9.3
2023-01-23T15:14:12.800Z,12.8
2023-01-23T15:16:16.563Z,10.1
2023-01-23T15:18:20.369Z,9.4
2023-01-23T15:19:23.635Z,10.7
2023-01-23T15:21:27.477Z,10.1
2023-01-23T15:23:31.502Z,10.1
2023-01-23T15:25:35.025Z,9.9
2023-01-23T15:27:41.652Z,11.6
2023-01-23T15:29:45.399Z,10.4
2023-01-23T15:31:49.224Z,10.7
2023-01-23T15:35:56.759Z,9.8
2023-01-23T15:38:00.565Z,10.9
2023-01-23T15:40:04.352Z,12.6
2023-01-23T15:44:14.668Z,12.2
2023-01-23T15:46:18.574Z,10.2
2023-01-23T15:50:27.141Z,10.9
2023-01-23T15:52:29.736Z,11.1
2023-01-23T15:54:33.549Z,11.3
2023-01-23T15:58:43.760Z,12.3
2023-01-23T16:00:47.492Z,10.1
2023-01-23T16:02:56.797Z,12.7
2023-01-23T16:04:54.953Z,10.8
2023-01-23T16:06:58.681Z,10.6
2023-01-23T16:09:05.773Z,12.2
2023-01-23T16:11:09.017Z,11
2023-01-23T16:13:12.704Z,12.9
2023-01-23T16:15:16.436Z,11.1
2023-01-23T16:16:19.699Z,11.6
2023-01-23T16:18:23.403Z,10.4
2023-01-23T16:24:37.466Z,13
2023-01-23T16:34:56.218Z,10.7
2023-01-23T16:43:13.942Z,9.7
2023-01-23T16:45:17.679Z,11
2023-01-23T16:49:25.111Z,10.8
2023-01-23T16:53:35.381Z,13.2
2023-01-23T16:55:40.628Z,10.9
2023-01-23T16:57:44.307Z,10.4
2023-01-23T16:59:48.054Z,10.2
2023-01-23T17:01:51.891Z,11.4
2023-01-23T17:03:55.519Z,10.7
2023-01-23T17:05:59.216Z,11.5
2023-01-23T17:08:05.761Z,13.5
2023-01-23T17:10:09.485Z,10.2
2023-01-23T17:12:13.229Z,9.9
2023-01-23T17:13:16.498Z,10.7
2023-01-23T17:17:23.975Z,10
2023-01-23T17:19:27.708Z,13.1
2023-01-23T17:21:34.473Z,10.9
2023-01-23T17:23:38.218Z,11.6
2023-01-23T17:25:54.464Z,11.3
2023-01-23T17:27:51.897Z,10.7
2023-01-23T17:29:49.499Z,11.5
2023-01-23T17:31:53.391Z,11.7
2023-01-23T17:33:56.985Z,12.4
2023-01-23T17:36:03.579Z,11.2
2023-01-23T17:38:07.273Z,11.3
2023-01-23T17:40:11.010Z,10.7
2023-01-23T17:42:14.767Z,12.7
2023-01-23T17:44:18.458Z,10.6
2023-01-23T17:48:25.935Z,12.2
2023-01-23T17:50:32.594Z,10.8
2023-01-23T17:52:36.313Z,9.5
2023-01-23T17:56:43.799Z,9.9
2023-01-23T17:58:47.534Z,10.3
2023-01-23T18:00:51.405Z,10.4
2023-01-23T18:02:55.020Z,11.5
2023-01-23T18:07:05.499Z,8.2
2023-01-23T18:11:39.087Z,11.7
2023-01-23T18:13:42.787Z,10.4
2023-01-23T18:15:46.622Z,11.6
2023-01-23T18:17:53.249Z,11.9
2023-01-23T18:19:56.979Z,11.1
2023-01-23T18:22:00.732Z,10.7
2023-01-23T18:24:04.538Z,13.1
2023-01-23T18:26:08.163Z,11.7
2023-01-23T18:28:12.003Z,10.5
2023-01-23T18:30:15.813Z,11.6
2023-01-23T18:32:22.431Z,11.1
2023-01-23T18:34:26.098Z,10.6
2023-01-23T18:36:29.830Z,12.2
2023-01-23T18:38:33.647Z,9.7
2023-01-23T18:40:37.375Z,11.8
2023-01-23T18:44:44.805Z,7.7
2023-01-23T18:48:55.179Z,10
2023-01-23T18:53:02.601Z,10.4
2023-01-23T18:55:06.332Z,9.1
2023-01-23T18:59:13.783Z,9.3
2023-01-23T19:01:20.324Z,10.2
2023-01-23T19:03:24.020Z,9
2023-01-23T19:05:27.763Z,10.3
2023-01-23T19:06:32.629Z,11.3
2023-01-23T19:08:34.751Z,10.7
2023-01-23T19:10:48.052Z,8
2023-01-23T19:12:42.197Z,8.3
2023-01-23T19:14:48.822Z,10
2023-01-23T19:16:52.547Z,9.5
2023-01-23T19:18:57.911Z,6.8
2023-01-23T19:20:59.965Z,9.3
2023-01-23T19:23:03.735Z,9.8
2023-01-23T19:25:07.525Z,9.7
2023-01-23T19:29:22.099Z,9.8
2023-01-23T19:33:25.326Z,11.7
2023-01-23T19:39:36.618Z,8.4
2023-01-23T19:41:40.437Z,10.6
2023-01-23T19:43:47.051Z,12.5
2023-01-23T19:45:50.777Z,10.3
2023-01-23T19:47:54.529Z,8
2023-01-23T19:49:58.240Z,10.4
2023-01-23T19:52:01.977Z,9.4
2023-01-23T19:54:05.763Z,9.4
2023-01-23T19:56:09.592Z,9.8
2023-01-23T19:58:16.261Z,11.5
2023-01-23T20:00:20.285Z,8.8
2023-01-23T20:02:25.517Z,10.4
2023-01-23T20:03:27.064Z,10
2023-01-23T20:05:30.869Z,8.5
2023-01-23T20:07:34.619Z,8.4
2023-01-23T20:09:38.290Z,10.4
2023-01-23T20:11:44.867Z,11.8
2023-01-23T20:13:48.590Z,8.3
2023-01-23T20:22:03.629Z,7.9
2023-01-23T20:26:13.979Z,8.2
2023-01-23T20:28:17.701Z,9.7
2023-01-23T20:30:21.723Z,8.6
2023-01-23T20:32:25.135Z,9.4
2023-01-23T20:38:36.305Z,12.2
2023-01-23T20:40:42.972Z,10
2023-01-23T20:42:46.692Z,7.7
2023-01-23T20:44:50.511Z,9.7
2023-01-23T20:46:54.224Z,8.8
2023-01-23T20:48:57.966Z,7.8
2023-01-23T20:51:01.781Z,8.2
2023-01-23T20:53:05.605Z,8.6
2023-01-23T20:55:12.380Z,10
2023-01-23T20:57:16.111Z,9.9
2023-01-23T20:59:19.845Z,7.4
2023-01-23T21:00:23.097Z,8.3
2023-01-23T21:02:26.815Z,8.6
2023-01-23T21:06:34.292Z,9.1
2023-01-23T21:08:40.832Z,10
2023-01-23T21:10:44.568Z,9.2
2023-01-23T21:14:52.111Z,8.3
2023-01-23T21:16:55.911Z,7.4
2023-01-23T21:21:03.480Z,7.7
2023-01-23T21:25:13.860Z,7.9
2023-01-23T21:29:21.310Z,9
2023-01-23T21:31:25.183Z,8
2023-01-23T21:33:28.733Z,7.4
2023-01-23T21:35:32.459Z,9
2023-01-23T21:37:38.985Z,7.7
2023-01-23T21:41:46.463Z,7
2023-01-23T21:43:50.176Z,9.1
2023-01-23T21:45:53.895Z,8.7
2023-01-23T21:47:57.604Z,8.1
2023-01-23T21:50:01.358Z,9.1
2023-01-23T21:52:07.911Z,8.2
2023-01-23T21:54:11.685Z,8.6
2023-01-23T21:56:15.349Z,8.8
2023-01-23T21:58:44.906Z,8.9
2023-01-23T22:07:02.575Z,7
2023-01-23T22:09:06.298Z,7.7
2023-01-23T22:21:31.595Z,7.1
2023-01-23T22:23:35.324Z,8.8
2023-01-23T22:27:42.741Z,8.5
2023-01-23T22:31:50.329Z,7.9
2023-01-23T22:33:56.848Z,8.2
2023-01-23T22:36:00.665Z,9
2023-01-23T22:38:04.406Z,10.4
2023-01-23T22:40:08.116Z,7.9
2023-01-23T22:44:15.545Z,7.8
2023-01-23T22:46:19.309Z,8
2023-01-23T22:48:25.823Z,8.3
2023-01-23T22:50:29.521Z,9.6
2023-01-23T22:52:34.772Z,10.5
2023-01-23T22:53:37.965Z,7.7
2023-01-23T22:55:41.714Z,8.2
2023-01-23T22:57:45.430Z,6.4
2023-01-23T22:59:49.444Z,8.4
2023-01-23T23:01:55.707Z,10.1
2023-01-23T23:03:59.512Z,10.4
2023-01-23T23:06:03.151Z,5.6
2023-01-23T23:08:06.864Z,6.9
2023-01-23T23:10:10.713Z,7.9
2023-01-23T23:12:14.516Z,8.4
2023-01-23T23:14:18.242Z,5.9
2023-01-23T23:16:24.990Z,6.8
2023-01-23T23:18:28.708Z,8.9
2023-01-23T23:20:32.549Z,6.5
2023-01-23T23:22:36.359Z,9.8
2023-01-23T23:24:40.184Z,6.9
2023-01-23T23:26:43.914Z,8.2
2023-01-23T23:28:47.724Z,8.9
2023-01-23T23:30:54.289Z,9.9
2023-01-23T23:32:57.996Z,7.1
2023-01-23T23:39:09.281Z,7.8
2023-01-23T23:41:12.984Z,8.2
2023-01-23T23:43:16.724Z,7.2
2023-01-23T23:45:23.601Z,9.3
2023-01-23T23:47:27.077Z,8.7
2023-01-23T23:50:34.075Z,8.1
2023-01-23T23:52:37.765Z,7.9
